sensor_id;sensor_type;location;lat;lon;timestamp;P1;durP1;ratioP1;P2;durP2;ratioP2
73747;SDS011;62056;52.130;5.428;2023-05-07T00:00:19;6.40;;;3.90;;
73747;SDS011;62056;52.130;5.428;2023-05-07T00:02:46;4.80;;;4.40;;
73747;SDS011;62056;52.130;5.428;2023-05-07T00:05:13;5.30;;;4.17;;
73747;SDS011;62056;52.130;5.428;2023-05-07T00:07:41;4.25;;;3.88;;
73747;SDS011;62056;52.130;5.428;2023-05-07T00:10:07;3.83;;;3.40;;
73747;SDS011;62056;52.130;5.428;2023-05-07T00:12:35;4.60;;;4.20;;
73747;SDS011;62056;52.130;5.428;2023-05-07T00:15:02;11.27;;;4.55;;
73747;SDS011;62056;52.130;5.428;2023-05-07T00:17:29;4.43;;;3.70;;
73747;SDS011;62056;52.130;5.428;2023-05-07T00:19:56;5.80;;;3.90;;
73747;SDS011;62056;52.130;5.428;2023-05-07T00:22:23;4.55;;;4.15;;
73747;SDS011;62056;52.130;5.428;2023-05-07T00:24:50;6.93;;;4.10;;
73747;SDS011;62056;52.130;5.428;2023-05-07T00:27:17;4.60;;;4.25;;
73747;SDS011;62056;52.130;5.428;2023-05-07T00:29:44;4.43;;;4.03;;
73747;SDS011;62056;52.130;5.428;2023-05-07T00:32:11;4.35;;;4.05;;
73747;SDS011;62056;52.130;5.428;2023-05-07T00:34:37;4.43;;;4.03;;
73747;SDS011;62056;52.130;5.428;2023-05-07T00:37:05;4.65;;;4.28;;
73747;SDS011;62056;52.130;5.428;2023-05-07T00:39:33;4.50;;;3.97;;
73747;SDS011;62056;52.130;5.428;2023-05-07T00:42:00;4.97;;;4.20;;
73747;SDS011;62056;52.130;5.428;2023-05-07T00:44:27;4.32;;;3.83;;
73747;SDS011;62056;52.130;5.428;2023-05-07T00:46:55;5.20;;;4.63;;
73747;SDS011;62056;52.130;5.428;2023-05-07T00:49:24;4.72;;;4.15;;
73747;SDS011;62056;52.130;5.428;2023-05-07T00:52:01;4.70;;;4.07;;
73747;SDS011;62056;52.130;5.428;2023-05-07T00:54:28;4.73;;;4.00;;
73747;SDS011;62056;52.130;5.428;2023-05-07T00:56:54;5.65;;;4.40;;
73747;SDS011;62056;52.130;5.428;2023-05-07T00:59:22;5.07;;;4.68;;
73747;SDS011;62056;52.130;5.428;2023-05-07T01:01:49;4.47;;;4.07;;
73747;SDS011;62056;52.130;5.428;2023-05-07T01:04:19;4.50;;;4.15;;
73747;SDS011;62056;52.130;5.428;2023-05-07T01:06:46;6.97;;;4.37;;
73747;SDS011;62056;52.130;5.428;2023-05-07T01:09:13;4.93;;;4.53;;
73747;SDS011;62056;52.130;5.428;2023-05-07T01:11:40;4.75;;;4.30;;
73747;SDS011;62056;52.130;5.428;2023-05-07T01:14:07;4.40;;;4.00;;
73747;SDS011;62056;52.130;5.428;2023-05-07T01:16:36;4.38;;;3.97;;
73747;SDS011;62056;52.130;5.428;2023-05-07T01:19:03;4.70;;;4.30;;
73747;SDS011;62056;52.130;5.428;2023-05-07T01:21:31;4.93;;;4.00;;
73747;SDS011;62056;52.130;5.428;2023-05-07T01:23:59;5.03;;;4.53;;
73747;SDS011;62056;52.130;5.428;2023-05-07T01:26:27;4.90;;;4.43;;
73747;SDS011;62056;52.130;5.428;2023-05-07T01:28:53;4.38;;;4.07;;
73747;SDS011;62056;52.130;5.428;2023-05-07T01:31:20;5.30;;;4.33;;
73747;SDS011;62056;52.130;5.428;2023-05-07T01:33:48;4.63;;;4.22;;
73747;SDS011;62056;52.130;5.428;2023-05-07T01:36:16;4.60;;;4.30;;
73747;SDS011;62056;52.130;5.428;2023-05-07T01:38:44;5.45;;;4.95;;
73747;SDS011;62056;52.130;5.428;2023-05-07T01:41:12;5.82;;;4.40;;
73747;SDS011;62056;52.130;5.428;2023-05-07T01:43:40;5.27;;;4.70;;
73747;SDS011;62056;52.130;5.428;2023-05-07T01:46:07;4.63;;;3.95;;
73747;SDS011;62056;52.130;5.428;2023-05-07T01:48:36;4.90;;;4.43;;
73747;SDS011;62056;52.130;5.428;2023-05-07T01:51:04;5.40;;;4.90;;
73747;SDS011;62056;52.130;5.428;2023-05-07T01:53:37;7.00;;;4.65;;
73747;SDS011;62056;52.130;5.428;2023-05-07T01:56:05;5.15;;;4.40;;
73747;SDS011;62056;52.130;5.428;2023-05-07T01:58:33;6.18;;;5.53;;
73747;SDS011;62056;52.130;5.428;2023-05-07T02:00:59;4.82;;;4.43;;
73747;SDS011;62056;52.130;5.428;2023-05-07T02:03:54;4.47;;;4.05;;
73747;SDS011;62056;52.130;5.428;2023-05-07T02:06:20;5.45;;;4.88;;
73747;SDS011;62056;52.130;5.428;2023-05-07T02:08:47;6.50;;;4.70;;
73747;SDS011;62056;52.130;5.428;2023-05-07T02:11:14;5.60;;;5.10;;
73747;SDS011;62056;52.130;5.428;2023-05-07T02:13:41;5.00;;;4.55;;
73747;SDS011;62056;52.130;5.428;2023-05-07T02:16:07;4.10;;;3.70;;
73747;SDS011;62056;52.130;5.428;2023-05-07T02:18:34;6.10;;;4.47;;
73747;SDS011;62056;52.130;5.428;2023-05-07T02:21:02;6.27;;;5.30;;
73747;SDS011;62056;52.130;5.428;2023-05-07T02:23:37;4.95;;;4.50;;
73747;SDS011;62056;52.130;5.428;2023-05-07T02:26:04;4.65;;;4.18;;
73747;SDS011;62056;52.130;5.428;2023-05-07T02:28:30;4.70;;;4.30;;
73747;SDS011;62056;52.130;5.428;2023-05-07T02:30:57;5.07;;;4.68;;
73747;SDS011;62056;52.130;5.428;2023-05-07T02:33:27;5.53;;;5.00;;
73747;SDS011;62056;52.130;5.428;2023-05-07T02:35:53;5.03;;;4.53;;
73747;SDS011;62056;52.130;5.428;2023-05-07T02:38:20;5.22;;;4.78;;
73747;SDS011;62056;52.130;5.428;2023-05-07T02:40:46;5.07;;;4.78;;
73747;SDS011;62056;52.130;5.428;2023-05-07T02:43:13;6.25;;;5.05;;
73747;SDS011;62056;52.130;5.428;2023-05-07T02:45:40;6.97;;;5.30;;
73747;SDS011;62056;52.130;5.428;2023-05-07T02:48:06;5.80;;;5.30;;
73747;SDS011;62056;52.130;5.428;2023-05-07T02:50:33;5.78;;;5.28;;
73747;SDS011;62056;52.130;5.428;2023-05-07T02:53:00;6.05;;;5.45;;
73747;SDS011;62056;52.130;5.428;2023-05-07T02:55:27;6.25;;;4.82;;
73747;SDS011;62056;52.130;5.428;2023-05-07T02:57:53;7.03;;;4.93;;
73747;SDS011;62056;52.130;5.428;2023-05-07T03:00:20;6.15;;;5.57;;
73747;SDS011;62056;52.130;5.428;2023-05-07T03:02:47;6.47;;;5.90;;
73747;SDS011;62056;52.130;5.428;2023-05-07T03:05:14;6.30;;;5.07;;
73747;SDS011;62056;52.130;5.428;2023-05-07T03:07:41;5.72;;;5.18;;
73747;SDS011;62056;52.130;5.428;2023-05-07T03:10:11;5.03;;;4.63;;
73747;SDS011;62056;52.130;5.428;2023-05-07T03:12:38;7.60;;;5.63;;
73747;SDS011;62056;52.130;5.428;2023-05-07T03:15:05;6.30;;;5.80;;
73747;SDS011;62056;52.130;5.428;2023-05-07T03:17:33;5.90;;;5.25;;
73747;SDS011;62056;52.130;5.428;2023-05-07T03:19:59;7.20;;;5.30;;
73747;SDS011;62056;52.130;5.428;2023-05-07T03:22:26;6.27;;;5.60;;
73747;SDS011;62056;52.130;5.428;2023-05-07T03:24:53;5.93;;;5.25;;
73747;SDS011;62056;52.130;5.428;2023-05-07T03:27:19;6.10;;;5.60;;
73747;SDS011;62056;52.130;5.428;2023-05-07T03:29:46;6.43;;;5.90;;
73747;SDS011;62056;52.130;5.428;2023-05-07T03:32:13;9.88;;;6.22;;
73747;SDS011;62056;52.130;5.428;2023-05-07T03:34:41;5.97;;;5.40;;
73747;SDS011;62056;52.130;5.428;2023-05-07T03:37:07;6.03;;;5.22;;
73747;SDS011;62056;52.130;5.428;2023-05-07T03:39:34;7.25;;;6.03;;
73747;SDS011;62056;52.130;5.428;2023-05-07T03:42:01;7.68;;;5.72;;
73747;SDS011;62056;52.130;5.428;2023-05-07T03:44:28;6.47;;;5.88;;
73747;SDS011;62056;52.130;5.428;2023-05-07T03:46:55;6.70;;;6.00;;
73747;SDS011;62056;52.130;5.428;2023-05-07T03:49:22;6.88;;;5.80;;
73747;SDS011;62056;52.130;5.428;2023-05-07T03:51:48;6.13;;;5.53;;
73747;SDS011;62056;52.130;5.428;2023-05-07T03:54:15;6.25;;;5.65;;
73747;SDS011;62056;52.130;5.428;2023-05-07T03:56:41;6.57;;;6.03;;
73747;SDS011;62056;52.130;5.428;2023-05-07T03:59:08;9.47;;;6.33;;
73747;SDS011;62056;52.130;5.428;2023-05-07T04:01:35;6.55;;;5.95;;
73747;SDS011;62056;52.130;5.428;2023-05-07T04:04:02;6.45;;;5.85;;
73747;SDS011;62056;52.130;5.428;2023-05-07T04:06:30;7.15;;;6.55;;
73747;SDS011;62056;52.130;5.428;2023-05-07T04:08:57;6.97;;;6.38;;
73747;SDS011;62056;52.130;5.428;2023-05-07T04:11:24;6.73;;;6.23;;
73747;SDS011;62056;52.130;5.428;2023-05-07T04:13:51;7.60;;;6.75;;
73747;SDS011;62056;52.130;5.428;2023-05-07T04:16:18;10.45;;;6.93;;
73747;SDS011;62056;52.130;5.428;2023-05-07T04:18:44;7.80;;;6.72;;
73747;SDS011;62056;52.130;5.428;2023-05-07T04:21:18;8.38;;;6.97;;
73747;SDS011;62056;52.130;5.428;2023-05-07T04:23:47;7.37;;;6.67;;
73747;SDS011;62056;52.130;5.428;2023-05-07T04:26:15;6.88;;;6.15;;
73747;SDS011;62056;52.130;5.428;2023-05-07T04:28:42;7.80;;;7.20;;
73747;SDS011;62056;52.130;5.428;2023-05-07T04:31:08;8.90;;;7.30;;
73747;SDS011;62056;52.130;5.428;2023-05-07T04:33:35;7.90;;;7.10;;
73747;SDS011;62056;52.130;5.428;2023-05-07T04:36:02;11.27;;;7.73;;
73747;SDS011;62056;52.130;5.428;2023-05-07T04:38:30;7.25;;;6.55;;
73747;SDS011;62056;52.130;5.428;2023-05-07T04:41:02;7.88;;;7.28;;
73747;SDS011;62056;52.130;5.428;2023-05-07T04:43:29;7.78;;;7.00;;
73747;SDS011;62056;52.130;5.428;2023-05-07T04:45:56;8.63;;;7.55;;
73747;SDS011;62056;52.130;5.428;2023-05-07T04:48:23;7.83;;;7.20;;
73747;SDS011;62056;52.130;5.428;2023-05-07T04:50:49;8.75;;;6.90;;
73747;SDS011;62056;52.130;5.428;2023-05-07T04:53:17;9.52;;;7.05;;
73747;SDS011;62056;52.130;5.428;2023-05-07T04:55:44;7.43;;;6.80;;
73747;SDS011;62056;52.130;5.428;2023-05-07T04:58:11;7.88;;;7.07;;
73747;SDS011;62056;52.130;5.428;2023-05-07T05:00:38;7.90;;;6.82;;
73747;SDS011;62056;52.130;5.428;2023-05-07T05:03:08;9.20;;;7.10;;
73747;SDS011;62056;52.130;5.428;2023-05-07T05:05:35;7.35;;;6.65;;
73747;SDS011;62056;52.130;5.428;2023-05-07T05:08:03;7.85;;;7.25;;
73747;SDS011;62056;52.130;5.428;2023-05-07T05:10:30;11.43;;;7.82;;
73747;SDS011;62056;52.130;5.428;2023-05-07T05:13:02;8.07;;;7.32;;
73747;SDS011;62056;52.130;5.428;2023-05-07T05:15:29;7.70;;;6.93;;
73747;SDS011;62056;52.130;5.428;2023-05-07T05:17:59;7.80;;;7.10;;
73747;SDS011;62056;52.130;5.428;2023-05-07T05:20:26;8.05;;;7.35;;
73747;SDS011;62056;52.130;5.428;2023-05-07T05:22:52;8.20;;;7.43;;
73747;SDS011;62056;52.130;5.428;2023-05-07T05:25:19;9.07;;;7.83;;
73747;SDS011;62056;52.130;5.428;2023-05-07T05:27:46;19.08;;;7.43;;
73747;SDS011;62056;52.130;5.428;2023-05-07T05:30:12;8.85;;;7.95;;
73747;SDS011;62056;52.130;5.428;2023-05-07T05:32:39;8.02;;;7.30;;
73747;SDS011;62056;52.130;5.428;2023-05-07T05:35:06;8.57;;;7.72;;
73747;SDS011;62056;52.130;5.428;2023-05-07T05:37:33;10.23;;;8.40;;
73747;SDS011;62056;52.130;5.428;2023-05-07T05:39:59;8.55;;;7.72;;
73747;SDS011;62056;52.130;5.428;2023-05-07T05:42:26;8.77;;;8.00;;
73747;SDS011;62056;52.130;5.428;2023-05-07T05:44:53;8.35;;;7.72;;
73747;SDS011;62056;52.130;5.428;2023-05-07T05:47:19;9.20;;;8.35;;
73747;SDS011;62056;52.130;5.428;2023-05-07T05:49:46;9.00;;;8.10;;
73747;SDS011;62056;52.130;5.428;2023-05-07T05:52:13;9.27;;;8.27;;
73747;SDS011;62056;52.130;5.428;2023-05-07T05:54:40;9.48;;;8.57;;
73747;SDS011;62056;52.130;5.428;2023-05-07T05:57:09;9.45;;;8.65;;
73747;SDS011;62056;52.130;5.428;2023-05-07T05:59:36;12.10;;;8.82;;
73747;SDS011;62056;52.130;5.428;2023-05-07T06:02:02;10.83;;;9.73;;
73747;SDS011;62056;52.130;5.428;2023-05-07T06:04:29;14.48;;;9.82;;
73747;SDS011;62056;52.130;5.428;2023-05-07T06:06:56;10.02;;;8.93;;
73747;SDS011;62056;52.130;5.428;2023-05-07T06:09:23;10.63;;;9.52;;
73747;SDS011;62056;52.130;5.428;2023-05-07T06:11:49;9.55;;;8.75;;
73747;SDS011;62056;52.130;5.428;2023-05-07T06:14:16;10.30;;;9.30;;
73747;SDS011;62056;52.130;5.428;2023-05-07T06:16:43;11.68;;;9.75;;
73747;SDS011;62056;52.130;5.428;2023-05-07T06:19:10;9.65;;;8.85;;
73747;SDS011;62056;52.130;5.428;2023-05-07T06:21:37;10.80;;;9.30;;
73747;SDS011;62056;52.130;5.428;2023-05-07T06:24:04;10.35;;;9.25;;
73747;SDS011;62056;52.130;5.428;2023-05-07T06:26:31;9.67;;;8.73;;
73747;SDS011;62056;52.130;5.428;2023-05-07T06:28:58;11.05;;;9.25;;
73747;SDS011;62056;52.130;5.428;2023-05-07T06:31:28;10.65;;;9.65;;
73747;SDS011;62056;52.130;5.428;2023-05-07T06:33:56;10.48;;;9.13;;
73747;SDS011;62056;52.130;5.428;2023-05-07T06:36:23;11.30;;;9.13;;
73747;SDS011;62056;52.130;5.428;2023-05-07T06:38:49;11.25;;;10.07;;
73747;SDS011;62056;52.130;5.428;2023-05-07T06:41:16;9.93;;;8.93;;
73747;SDS011;62056;52.130;5.428;2023-05-07T06:43:42;9.95;;;9.00;;
73747;SDS011;62056;52.130;5.428;2023-05-07T06:46:09;10.25;;;8.45;;
73747;SDS011;62056;52.130;5.428;2023-05-07T06:48:35;14.43;;;10.18;;
73747;SDS011;62056;52.130;5.428;2023-05-07T06:51:02;9.45;;;8.57;;
73747;SDS011;62056;52.130;5.428;2023-05-07T06:53:29;12.75;;;9.98;;
73747;SDS011;62056;52.130;5.428;2023-05-07T06:55:56;10.02;;;9.18;;
73747;SDS011;62056;52.130;5.428;2023-05-07T06:58:23;10.20;;;9.23;;
73747;SDS011;62056;52.130;5.428;2023-05-07T07:00:50;12.40;;;9.00;;
73747;SDS011;62056;52.130;5.428;2023-05-07T07:03:16;9.87;;;9.07;;
73747;SDS011;62056;52.130;5.428;2023-05-07T07:05:43;8.77;;;7.55;;
73747;SDS011;62056;52.130;5.428;2023-05-07T07:08:09;9.18;;;8.50;;
73747;SDS011;62056;52.130;5.428;2023-05-07T07:10:36;9.68;;;8.60;;
73747;SDS011;62056;52.130;5.428;2023-05-07T07:13:08;9.73;;;8.82;;
73747;SDS011;62056;52.130;5.428;2023-05-07T07:15:37;9.77;;;8.87;;
73747;SDS011;62056;52.130;5.428;2023-05-07T07:18:04;9.25;;;8.35;;
73747;SDS011;62056;52.130;5.428;2023-05-07T07:20:31;9.40;;;8.60;;
73747;SDS011;62056;52.130;5.428;2023-05-07T07:22:57;11.85;;;10.10;;
73747;SDS011;62056;52.130;5.428;2023-05-07T07:25:24;9.32;;;8.43;;
73747;SDS011;62056;52.130;5.428;2023-05-07T07:27:51;12.40;;;7.65;;
73747;SDS011;62056;52.130;5.428;2023-05-07T07:30:17;8.95;;;8.25;;
73747;SDS011;62056;52.130;5.428;2023-05-07T07:32:44;7.72;;;6.85;;
73747;SDS011;62056;52.130;5.428;2023-05-07T07:35:11;14.98;;;8.35;;
73747;SDS011;62056;52.130;5.428;2023-05-07T07:37:37;9.98;;;8.80;;
73747;SDS011;62056;52.130;5.428;2023-05-07T07:40:04;8.07;;;7.45;;
73747;SDS011;62056;52.130;5.428;2023-05-07T07:42:37;9.23;;;8.38;;
73747;SDS011;62056;52.130;5.428;2023-05-07T07:45:04;8.80;;;8.02;;
73747;SDS011;62056;52.130;5.428;2023-05-07T07:47:32;8.40;;;7.72;;
73747;SDS011;62056;52.130;5.428;2023-05-07T07:49:58;8.90;;;8.13;;
73747;SDS011;62056;52.130;5.428;2023-05-07T07:52:25;8.82;;;8.20;;
73747;SDS011;62056;52.130;5.428;2023-05-07T07:54:52;8.82;;;8.02;;
73747;SDS011;62056;52.130;5.428;2023-05-07T07:57:18;9.75;;;8.90;;
73747;SDS011;62056;52.130;5.428;2023-05-07T07:59:45;9.48;;;8.45;;
73747;SDS011;62056;52.130;5.428;2023-05-07T08:02:12;8.32;;;7.60;;
73747;SDS011;62056;52.130;5.428;2023-05-07T08:04:38;8.65;;;7.95;;
73747;SDS011;62056;52.130;5.428;2023-05-07T08:07:05;8.70;;;7.78;;
73747;SDS011;62056;52.130;5.428;2023-05-07T08:09:32;9.93;;;8.57;;
73747;SDS011;62056;52.130;5.428;2023-05-07T08:11:58;9.38;;;8.35;;
73747;SDS011;62056;52.130;5.428;2023-05-07T08:14:25;8.60;;;7.80;;
73747;SDS011;62056;52.130;5.428;2023-05-07T08:16:52;9.25;;;8.35;;
73747;SDS011;62056;52.130;5.428;2023-05-07T08:19:19;9.27;;;8.40;;
73747;SDS011;62056;52.130;5.428;2023-05-07T08:21:46;9.93;;;8.90;;
73747;SDS011;62056;52.130;5.428;2023-05-07T08:24:14;9.73;;;8.77;;
73747;SDS011;62056;52.130;5.428;2023-05-07T08:26:41;10.82;;;9.65;;
73747;SDS011;62056;52.130;5.428;2023-05-07T08:29:09;10.35;;;8.85;;
73747;SDS011;62056;52.130;5.428;2023-05-07T08:31:36;11.27;;;8.60;;
73747;SDS011;62056;52.130;5.428;2023-05-07T08:34:04;9.65;;;8.70;;
73747;SDS011;62056;52.130;5.428;2023-05-07T08:36:35;8.65;;;7.80;;
73747;SDS011;62056;52.130;5.428;2023-05-07T08:39:02;9.18;;;8.25;;
73747;SDS011;62056;52.130;5.428;2023-05-07T08:41:29;9.88;;;9.02;;
73747;SDS011;62056;52.130;5.428;2023-05-07T08:43:56;9.63;;;8.50;;
73747;SDS011;62056;52.130;5.428;2023-05-07T08:46:27;12.38;;;9.05;;
73747;SDS011;62056;52.130;5.428;2023-05-07T08:48:58;9.70;;;8.80;;
73747;SDS011;62056;52.130;5.428;2023-05-07T08:51:24;10.35;;;9.35;;
73747;SDS011;62056;52.130;5.428;2023-05-07T08:53:51;9.90;;;9.00;;
73747;SDS011;62056;52.130;5.428;2023-05-07T08:56:18;10.23;;;8.90;;
73747;SDS011;62056;52.130;5.428;2023-05-07T08:58:47;10.02;;;9.23;;
73747;SDS011;62056;52.130;5.428;2023-05-07T09:01:15;10.27;;;9.32;;
73747;SDS011;62056;52.130;5.428;2023-05-07T09:03:49;10.60;;;9.50;;
73747;SDS011;62056;52.130;5.428;2023-05-07T09:06:16;10.05;;;9.13;;
73747;SDS011;62056;52.130;5.428;2023-05-07T09:08:50;10.00;;;9.20;;
73747;SDS011;62056;52.130;5.428;2023-05-07T09:11:24;10.13;;;9.23;;
73747;SDS011;62056;52.130;5.428;2023-05-07T09:13:54;10.50;;;9.52;;
73747;SDS011;62056;52.130;5.428;2023-05-07T09:16:28;10.77;;;9.80;;
73747;SDS011;62056;52.130;5.428;2023-05-07T09:18:56;10.90;;;10.07;;
73747;SDS011;62056;52.130;5.428;2023-05-07T09:21:24;10.80;;;9.77;;
73747;SDS011;62056;52.130;5.428;2023-05-07T09:23:52;10.82;;;9.93;;
73747;SDS011;62056;52.130;5.428;2023-05-07T09:26:23;10.88;;;9.82;;
73747;SDS011;62056;52.130;5.428;2023-05-07T09:28:51;10.98;;;9.95;;
73747;SDS011;62056;52.130;5.428;2023-05-07T09:31:18;10.75;;;9.70;;
73747;SDS011;62056;52.130;5.428;2023-05-07T09:33:46;10.80;;;9.65;;
73747;SDS011;62056;52.130;5.428;2023-05-07T09:36:13;10.30;;;9.38;;
73747;SDS011;62056;52.130;5.428;2023-05-07T09:38:40;11.00;;;9.90;;
73747;SDS011;62056;52.130;5.428;2023-05-07T09:41:11;8.90;;;8.20;;
73747;SDS011;62056;52.130;5.428;2023-05-07T09:43:39;9.63;;;8.73;;
73747;SDS011;62056;52.130;5.428;2023-05-07T09:46:13;9.20;;;8.40;;
73747;SDS011;62056;52.130;5.428;2023-05-07T09:48:42;9.70;;;8.90;;
73747;SDS011;62056;52.130;5.428;2023-05-07T09:51:29;10.25;;;9.25;;
73747;SDS011;62056;52.130;5.428;2023-05-07T09:54:26;10.40;;;8.75;;
73747;SDS011;62056;52.130;5.428;2023-05-07T09:56:55;9.88;;;8.63;;
73747;SDS011;62056;52.130;5.428;2023-05-07T09:59:23;11.17;;;9.23;;
73747;SDS011;62056;52.130;5.428;2023-05-07T10:01:56;9.38;;;8.57;;
73747;SDS011;62056;52.130;5.428;2023-05-07T10:04:25;10.55;;;9.55;;
73747;SDS011;62056;52.130;5.428;2023-05-07T10:06:53;10.82;;;9.82;;
73747;SDS011;62056;52.130;5.428;2023-05-07T10:09:21;11.15;;;10.05;;
73747;SDS011;62056;52.130;5.428;2023-05-07T10:11:49;9.70;;;8.80;;
73747;SDS011;62056;52.130;5.428;2023-05-07T10:14:16;11.70;;;10.40;;
73747;SDS011;62056;52.130;5.428;2023-05-07T10:16:44;12.68;;;9.90;;
73747;SDS011;62056;52.130;5.428;2023-05-07T10:19:11;12.70;;;9.48;;
73747;SDS011;62056;52.130;5.428;2023-05-07T10:21:44;10.82;;;9.95;;
73747;SDS011;62056;52.130;5.428;2023-05-07T10:24:25;10.93;;;9.93;;
73747;SDS011;62056;52.130;5.428;2023-05-07T10:26:53;12.35;;;10.18;;
73747;SDS011;62056;52.130;5.428;2023-05-07T10:32:30;11.07;;;9.65;;
73747;SDS011;62056;52.130;5.428;2023-05-07T10:35:10;12.27;;;10.25;;
73747;SDS011;62056;52.130;5.428;2023-05-07T10:37:42;11.00;;;9.90;;
73747;SDS011;62056;52.130;5.428;2023-05-07T10:40:10;11.23;;;10.13;;
73747;SDS011;62056;52.130;5.428;2023-05-07T10:42:38;10.13;;;9.23;;
73747;SDS011;62056;52.130;5.428;2023-05-07T10:45:11;10.10;;;9.27;;
73747;SDS011;62056;52.130;5.428;2023-05-07T10:50:53;11.27;;;10.07;;
73747;SDS011;62056;52.130;5.428;2023-05-07T10:56:40;9.82;;;8.95;;
73747;SDS011;62056;52.130;5.428;2023-05-07T11:01:50;10.50;;;9.35;;
73747;SDS011;62056;52.130;5.428;2023-05-07T11:04:20;9.97;;;9.00;;
73747;SDS011;62056;52.130;5.428;2023-05-07T11:17:34;10.80;;;9.90;;
73747;SDS011;62056;52.130;5.428;2023-05-07T11:20:02;9.93;;;8.82;;
73747;SDS011;62056;52.130;5.428;2023-05-07T11:24:59;10.82;;;9.73;;
73747;SDS011;62056;52.130;5.428;2023-05-07T11:27:27;10.93;;;9.93;;
73747;SDS011;62056;52.130;5.428;2023-05-07T11:29:55;12.80;;;10.33;;
73747;SDS011;62056;52.130;5.428;2023-05-07T11:32:24;11.25;;;10.07;;
73747;SDS011;62056;52.130;5.428;2023-05-07T11:34:57;10.75;;;9.75;;
73747;SDS011;62056;52.130;5.428;2023-05-07T11:37:26;11.07;;;9.98;;
73747;SDS011;62056;52.130;5.428;2023-05-07T11:40:04;15.45;;;10.45;;
73747;SDS011;62056;52.130;5.428;2023-05-07T11:42:33;10.30;;;9.40;;
73747;SDS011;62056;52.130;5.428;2023-05-07T11:45:04;10.63;;;9.65;;
73747;SDS011;62056;52.130;5.428;2023-05-07T11:47:32;13.50;;;10.85;;
73747;SDS011;62056;52.130;5.428;2023-05-07T11:50:04;9.90;;;9.18;;
73747;SDS011;62056;52.130;5.428;2023-05-07T11:52:32;11.40;;;10.40;;
73747;SDS011;62056;52.130;5.428;2023-05-07T11:55:00;12.27;;;11.27;;
73747;SDS011;62056;52.130;5.428;2023-05-07T11:57:29;12.85;;;11.55;;
73747;SDS011;62056;52.130;5.428;2023-05-07T11:59:57;12.00;;;10.43;;
73747;SDS011;62056;52.130;5.428;2023-05-07T12:02:25;12.15;;;10.90;;
73747;SDS011;62056;52.130;5.428;2023-05-07T12:04:52;11.52;;;10.50;;
73747;SDS011;62056;52.130;5.428;2023-05-07T12:07:19;12.00;;;10.80;;
73747;SDS011;62056;52.130;5.428;2023-05-07T12:09:47;11.27;;;10.18;;
73747;SDS011;62056;52.130;5.428;2023-05-07T12:12:14;9.65;;;8.75;;
73747;SDS011;62056;52.130;5.428;2023-05-07T12:14:42;11.93;;;10.85;;
73747;SDS011;62056;52.130;5.428;2023-05-07T12:17:10;8.75;;;8.05;;
73747;SDS011;62056;52.130;5.428;2023-05-07T12:19:39;12.27;;;11.07;;
73747;SDS011;62056;52.130;5.428;2023-05-07T12:22:07;11.80;;;10.80;;
73747;SDS011;62056;52.130;5.428;2023-05-07T12:24:47;12.02;;;10.90;;
73747;SDS011;62056;52.130;5.428;2023-05-07T12:27:16;11.90;;;10.70;;
73747;SDS011;62056;52.130;5.428;2023-05-07T12:29:46;10.85;;;9.88;;
73747;SDS011;62056;52.130;5.428;2023-05-07T12:32:18;11.83;;;10.77;;
73747;SDS011;62056;52.130;5.428;2023-05-07T12:34:47;10.40;;;9.40;;
73747;SDS011;62056;52.130;5.428;2023-05-07T12:37:16;12.25;;;11.15;;
73747;SDS011;62056;52.130;5.428;2023-05-07T12:39:49;11.15;;;9.80;;
73747;SDS011;62056;52.130;5.428;2023-05-07T12:42:32;9.13;;;8.32;;
73747;SDS011;62056;52.130;5.428;2023-05-07T12:45:11;9.33;;;8.53;;
73747;SDS011;62056;52.130;5.428;2023-05-07T12:47:43;9.05;;;7.28;;
73747;SDS011;62056;52.130;5.428;2023-05-07T12:50:11;10.80;;;9.52;;
73747;SDS011;62056;52.130;5.428;2023-05-07T12:52:39;8.95;;;8.10;;
73747;SDS011;62056;52.130;5.428;2023-05-07T12:55:07;9.48;;;8.30;;
73747;SDS011;62056;52.130;5.428;2023-05-07T12:57:38;9.83;;;8.27;;
73747;SDS011;62056;52.130;5.428;2023-05-07T13:00:06;8.23;;;6.32;;
73747;SDS011;62056;52.130;5.428;2023-05-07T13:02:33;7.70;;;6.85;;
73747;SDS011;62056;52.130;5.428;2023-05-07T13:05:02;8.18;;;7.38;;
73747;SDS011;62056;52.130;5.428;2023-05-07T13:07:28;6.97;;;6.38;;
73747;SDS011;62056;52.130;5.428;2023-05-07T13:09:56;10.73;;;7.27;;
73747;SDS011;62056;52.130;5.428;2023-05-07T13:12:22;6.60;;;5.90;;
73747;SDS011;62056;52.130;5.428;2023-05-07T13:14:49;7.88;;;6.53;;
73747;SDS011;62056;52.130;5.428;2023-05-07T13:17:16;9.85;;;7.68;;
73747;SDS011;62056;52.130;5.428;2023-05-07T13:19:42;7.45;;;6.70;;
73747;SDS011;62056;52.130;5.428;2023-05-07T13:22:09;7.20;;;6.60;;
73747;SDS011;62056;52.130;5.428;2023-05-07T13:24:36;7.00;;;6.25;;
73747;SDS011;62056;52.130;5.428;2023-05-07T13:27:03;8.05;;;6.53;;
73747;SDS011;62056;52.130;5.428;2023-05-07T13:29:30;6.78;;;5.97;;
73747;SDS011;62056;52.130;5.428;2023-05-07T13:31:58;8.48;;;7.60;;
73747;SDS011;62056;52.130;5.428;2023-05-07T13:34:26;8.83;;;8.00;;
73747;SDS011;62056;52.130;5.428;2023-05-07T13:36:54;9.82;;;8.82;;
73747;SDS011;62056;52.130;5.428;2023-05-07T13:39:21;9.32;;;8.52;;
73747;SDS011;62056;52.130;5.428;2023-05-07T13:41:48;10.60;;;9.63;;
73747;SDS011;62056;52.130;5.428;2023-05-07T13:44:14;10.00;;;8.20;;
73747;SDS011;62056;52.130;5.428;2023-05-07T13:46:41;9.20;;;8.03;;
73747;SDS011;62056;52.130;5.428;2023-05-07T13:49:08;10.15;;;8.18;;
73747;SDS011;62056;52.130;5.428;2023-05-07T13:51:37;10.52;;;8.60;;
73747;SDS011;62056;52.130;5.428;2023-05-07T13:54:04;11.50;;;9.65;;
73747;SDS011;62056;52.130;5.428;2023-05-07T13:56:30;10.38;;;9.57;;
73747;SDS011;62056;52.130;5.428;2023-05-07T13:58:58;10.63;;;9.40;;
73747;SDS011;62056;52.130;5.428;2023-05-07T14:01:26;10.15;;;9.23;;
73747;SDS011;62056;52.130;5.428;2023-05-07T14:03:54;10.88;;;8.73;;
73747;SDS011;62056;52.130;5.428;2023-05-07T14:06:22;11.52;;;10.43;;
73747;SDS011;62056;52.130;5.428;2023-05-07T14:08:48;10.13;;;9.13;;
73747;SDS011;62056;52.130;5.428;2023-05-07T14:11:15;8.33;;;7.63;;
73747;SDS011;62056;52.130;5.428;2023-05-07T14:13:41;9.50;;;8.70;;
73747;SDS011;62056;52.130;5.428;2023-05-07T14:16:08;10.13;;;9.13;;
73747;SDS011;62056;52.130;5.428;2023-05-07T14:18:35;8.63;;;7.82;;
73747;SDS011;62056;52.130;5.428;2023-05-07T14:21:04;10.43;;;9.63;;
73747;SDS011;62056;52.130;5.428;2023-05-07T14:23:32;10.27;;;8.40;;
73747;SDS011;62056;52.130;5.428;2023-05-07T14:25:59;10.75;;;9.75;;
73747;SDS011;62056;52.130;5.428;2023-05-07T14:28:26;9.32;;;8.52;;
73747;SDS011;62056;52.130;5.428;2023-05-07T14:30:52;7.20;;;6.38;;
73747;SDS011;62056;52.130;5.428;2023-05-07T14:33:19;7.53;;;6.85;;
73747;SDS011;62056;52.130;5.428;2023-05-07T14:35:46;10.20;;;9.30;;
73747;SDS011;62056;52.130;5.428;2023-05-07T14:38:15;10.18;;;9.23;;
73747;SDS011;62056;52.130;5.428;2023-05-07T14:40:42;10.40;;;9.40;;
73747;SDS011;62056;52.130;5.428;2023-05-07T14:43:08;10.77;;;9.52;;
73747;SDS011;62056;52.130;5.428;2023-05-07T14:46:02;9.05;;;8.35;;
73747;SDS011;62056;52.130;5.428;2023-05-07T14:48:29;8.83;;;8.07;;
73747;SDS011;62056;52.130;5.428;2023-05-07T14:50:56;8.93;;;8.25;;
73747;SDS011;62056;52.130;5.428;2023-05-07T14:53:23;8.85;;;7.97;;
73747;SDS011;62056;52.130;5.428;2023-05-07T14:55:49;8.35;;;7.53;;
73747;SDS011;62056;52.130;5.428;2023-05-07T14:58:16;8.57;;;7.82;;
73747;SDS011;62056;52.130;5.428;2023-05-07T15:00:43;8.00;;;7.20;;
73747;SDS011;62056;52.130;5.428;2023-05-07T15:03:09;8.30;;;7.50;;
73747;SDS011;62056;52.130;5.428;2023-05-07T15:05:37;7.38;;;6.68;;
73747;SDS011;62056;52.130;5.428;2023-05-07T15:08:04;8.35;;;7.55;;
73747;SDS011;62056;52.130;5.428;2023-05-07T15:10:34;9.18;;;8.10;;
73747;SDS011;62056;52.130;5.428;2023-05-07T15:13:07;8.90;;;7.50;;